createdAt,value
2022-08-23T00:02:56.515Z,11.73
2022-08-23T00:07:50.430Z,8.60
2022-08-23T00:12:43.620Z,7.10
2022-08-23T00:17:36.218Z,8.00
2022-08-23T00:22:28.784Z,11.93
2022-08-23T00:27:22.661Z,8.17
2022-08-23T00:32:16.839Z,9.07
2022-08-23T00:37:10.093Z,11.23
2022-08-23T00:42:27.225Z,9.17
2022-08-23T00:47:43.273Z,10.30
2022-08-23T00:52:41.600Z,8.23
2022-08-23T00:57:34.869Z,8.83
2022-08-23T01:02:29.104Z,9.37
2022-08-23T01:07:25.708Z,10.70
2022-08-23T01:12:32.735Z,8.70
2022-08-23T01:17:28.732Z,11.17
2022-08-23T01:22:23.831Z,12.30
2022-08-23T01:27:18.417Z,10.00
2022-08-23T01:32:13.416Z,10.53
2022-08-23T01:37:07.970Z,8.50
2022-08-23T01:42:00.661Z,9.50
2022-08-23T01:47:01.344Z,11.40
2022-08-23T01:51:55.220Z,9.87
2022-08-23T01:56:47.840Z,11.87
2022-08-23T02:01:40.803Z,10.07
2022-08-23T02:06:34.875Z,9.43
2022-08-23T02:11:29.743Z,12.77
2022-08-23T02:16:24.037Z,10.33
2022-08-23T02:21:17.626Z,10.70
2022-08-23T02:26:12.451Z,11.83
2022-08-23T02:31:06.294Z,9.60
2022-08-23T02:35:59.123Z,11.23
2022-08-23T02:41:00.935Z,11.77
2022-08-23T02:45:58.046Z,11.50
2022-08-23T02:50:50.910Z,10.97
2022-08-23T02:55:45.879Z,12.03
2022-08-23T03:00:39.057Z,13.17
2022-08-23T03:05:33.531Z,13.70
2022-08-23T03:10:27.248Z,11.20
2022-08-23T03:15:25.066Z,13.87
2022-08-23T03:20:17.726Z,10.17
2022-08-23T03:25:13.958Z,12.73
2022-08-23T03:30:28.279Z,13.80
2022-08-23T03:35:24.292Z,13.00
2022-08-23T03:40:18.288Z,12.60
2022-08-23T03:45:11.378Z,12.30
2022-08-23T03:50:04.253Z,12.83
2022-08-23T03:54:58.584Z,12.97
2022-08-23T03:59:55.217Z,11.73
2022-08-23T04:04:48.623Z,13.80
2022-08-23T04:09:55.649Z,13.00
2022-08-23T04:14:51.315Z,10.83
2022-08-23T04:19:45.719Z,13.07
2022-08-23T04:24:38.727Z,9.73
2022-08-23T04:29:34.199Z,13.07
2022-08-23T04:34:28.870Z,13.03
2022-08-23T04:39:23.146Z,13.10
2022-08-23T04:44:16.782Z,13.20
2022-08-23T04:49:10.664Z,11.10
2022-08-23T04:54:04.166Z,11.80
2022-08-23T04:59:13.187Z,10.90
2022-08-23T05:04:08.227Z,13.30
2022-08-23T05:09:03.088Z,12.73
2022-08-23T05:13:57.342Z,8.47
2022-08-23T05:18:51.436Z,9.43
2022-08-23T05:23:45.212Z,12.10
2022-08-23T05:28:47.840Z,10.63
2022-08-23T05:33:43.073Z,9.90
2022-08-23T05:38:37.476Z,10.67
2022-08-23T05:43:31.401Z,10.17
2022-08-23T05:48:25.510Z,8.07
2022-08-23T05:53:23.708Z,10.07
2022-08-23T05:58:18.109Z,9.43
2022-08-23T06:03:11.371Z,10.00
2022-08-23T06:08:04.408Z,8.73
2022-08-23T06:12:57.668Z,8.73
2022-08-23T06:17:51.620Z,8.00
2022-08-23T06:22:44.221Z,8.90
2022-08-23T06:27:36.946Z,8.40
2022-08-23T06:32:30.461Z,8.93
2022-08-23T06:37:43.033Z,9.30
2022-08-23T06:42:53.809Z,10.93
2022-08-23T06:47:51.389Z,17.00
2022-08-23T06:52:47.411Z,10.40
2022-08-23T06:57:49.825Z,12.17
2022-08-23T07:03:01.113Z,9.70
2022-08-23T07:08:13.826Z,10.80
2022-08-23T07:13:06.636Z,9.10
2022-08-23T07:17:59.377Z,9.50
2022-08-23T07:22:51.931Z,8.20
2022-08-23T07:27:45.978Z,10.93
2022-08-23T07:32:41.543Z,7.00
2022-08-23T07:37:46.753Z,13.87
2022-08-23T07:42:40.591Z,7.70
2022-08-23T07:47:35.048Z,7.63
2022-08-23T07:52:27.771Z,9.70
2022-08-23T07:57:20.951Z,11.90
2022-08-23T08:02:22.697Z,7.30
2022-08-23T08:07:20.493Z,9.13
2022-08-23T08:12:19.409Z,7.10
2022-08-23T08:17:14.974Z,8.90
2022-08-23T08:22:34.785Z,10.77
2022-08-23T08:27:55.124Z,9.50
2022-08-23T08:32:47.700Z,8.33
2022-08-23T08:37:42.727Z,11.40
2022-08-23T08:42:46.218Z,8.83
2022-08-23T08:47:44.243Z,8.23
2022-08-23T08:52:39.079Z,11.83
2022-08-23T08:57:42.968Z,8.47
2022-08-23T09:02:36.050Z,7.23
2022-08-23T09:07:34.205Z,7.77
2022-08-23T09:12:32.419Z,8.20
2022-08-23T09:17:32.185Z,6.13
2022-08-23T09:22:29.229Z,6.57
2022-08-23T09:27:22.188Z,6.33
2022-08-23T09:32:28.273Z,5.70
2022-08-23T09:37:22.471Z,5.70
2022-08-23T09:42:27.962Z,5.10
2022-08-23T09:47:20.548Z,6.43
2022-08-23T09:52:24.153Z,6.97
2022-08-23T09:57:26.257Z,5.10
2022-08-23T10:02:27.181Z,5.73
2022-08-23T10:07:28.734Z,6.63
2022-08-23T10:12:23.869Z,4.23
2022-08-23T10:17:24.572Z,5.93
2022-08-23T10:22:20.099Z,6.67
2022-08-23T10:27:52.412Z,4.20
2022-08-23T10:32:48.457Z,6.90
2022-08-23T10:37:51.327Z,5.93
2022-08-23T10:42:51.265Z,6.37
2022-08-23T10:47:52.280Z,7.83
2022-08-23T10:52:49.016Z,6.07
2022-08-23T10:57:43.493Z,5.40
2022-08-23T11:02:42.581Z,5.07
2022-08-23T11:07:56.586Z,7.47
2022-08-23T11:12:54.344Z,6.17
2022-08-23T11:17:57.472Z,4.60
2022-08-23T11:23:10.945Z,6.00
2022-08-23T11:28:18.562Z,4.97
2022-08-23T11:33:16.165Z,5.50
2022-08-23T11:38:10.644Z,5.67
2022-08-23T11:43:13.834Z,5.70
2022-08-23T11:48:12.984Z,5.87
2022-08-23T11:53:15.320Z,9.33
2022-08-23T11:58:31.436Z,6.30
2022-08-23T12:03:26.316Z,6.53
2022-08-23T12:08:32.842Z,6.20
2022-08-23T12:13:33.745Z,5.90
2022-08-23T12:18:26.443Z,6.17
2022-08-23T12:23:21.527Z,5.23
2022-08-23T12:28:32.076Z,5.20
2022-08-23T12:33:33.201Z,6.77
2022-08-23T12:38:32.288Z,6.20
2022-08-23T12:43:26.695Z,7.17
2022-08-23T12:48:23.015Z,10.03
2022-08-23T12:53:18.136Z,6.03
2022-08-23T12:58:11.389Z,7.23
2022-08-23T13:03:08.451Z,5.00
2022-08-23T13:08:03.635Z,5.50
2022-08-23T13:12:57.805Z,9.43
2022-08-23T13:18:00.244Z,5.43
2022-08-23T13:22:57.036Z,7.23
2022-08-23T13:27:52.036Z,4.93
2022-08-23T13:32:47.112Z,5.90
2022-08-23T13:37:45.938Z,7.10
2022-08-23T13:42:48.291Z,11.73
2022-08-23T13:47:49.112Z,7.73
2022-08-23T13:53:03.165Z,6.63
2022-08-23T13:57:54.985Z,6.00
2022-08-23T14:02:49.835Z,7.00
2022-08-23T14:07:42.439Z,5.40
2022-08-23T14:12:35.359Z,5.47
2022-08-23T14:17:28.575Z,5.17
2022-08-23T14:22:22.662Z,5.77
2022-08-23T14:27:15.449Z,7.80
2022-08-23T14:32:08.082Z,4.97
2022-08-23T14:42:15.862Z,5.43
2022-08-23T14:47:08.431Z,6.03
2022-08-23T14:52:01.054Z,6.23
2022-08-23T14:56:53.726Z,7.00
2022-08-23T15:01:48.312Z,6.43
2022-08-23T15:07:00.409Z,5.87
2022-08-23T15:17:08.911Z,6.47
2022-08-23T15:22:06.519Z,5.27
2022-08-23T15:27:14.428Z,5.93
2022-08-23T15:32:07.223Z,6.03
2022-08-23T15:37:04.088Z,7.13
2022-08-23T15:41:56.661Z,7.93
2022-08-23T15:46:50.026Z,8.47
2022-08-23T15:51:42.727Z,8.43
2022-08-23T15:56:38.262Z,6.27
2022-08-23T16:01:33.785Z,5.93
2022-08-23T16:06:26.465Z,6.63
2022-08-23T16:11:19.308Z,5.47
2022-08-23T16:16:16.511Z,7.57
2022-08-23T16:21:09.173Z,9.43
2022-08-23T16:26:01.737Z,6.60
2022-08-23T16:30:54.912Z,7.57
2022-08-23T16:35:48.891Z,6.93
2022-08-23T16:40:41.511Z,4.70
2022-08-23T16:50:44.244Z,7.53
2022-08-23T16:55:38.399Z,6.17
2022-08-23T17:00:31.448Z,4.80
2022-08-23T17:05:24.088Z,5.23
2022-08-23T17:10:17.488Z,7.37
2022-08-23T17:15:15.676Z,5.60
2022-08-23T17:20:14.626Z,9.90
2022-08-23T17:25:07.848Z,10.00
2022-08-23T17:30:00.885Z,7.67
2022-08-23T17:34:54.761Z,5.00
2022-08-23T17:39:48.461Z,7.13
2022-08-23T17:44:41.260Z,9.13
2022-08-23T17:49:33.865Z,6.27
2022-08-23T17:54:27.734Z,5.97
2022-08-23T17:59:20.396Z,6.30
2022-08-23T18:04:12.959Z,4.73
2022-08-23T18:09:06.356Z,6.80
2022-08-23T18:14:00.319Z,5.87
2022-08-23T18:18:52.899Z,6.80
2022-08-23T18:23:45.863Z,7.10
2022-08-23T18:28:38.402Z,7.07
2022-08-23T18:33:46.428Z,11.03
2022-08-23T18:38:39.972Z,12.53
2022-08-23T18:43:37.406Z,6.80
2022-08-23T18:48:31.720Z,8.87
2022-08-23T18:53:24.597Z,7.63
2022-08-23T18:58:17.415Z,7.73
2022-08-23T19:03:11.130Z,8.40
2022-08-23T19:08:05.472Z,6.60
2022-08-23T19:12:58.581Z,10.23
2022-08-23T19:17:52.845Z,11.03
2022-08-23T19:22:45.376Z,15.97
2022-08-23T19:27:39.266Z,11.23
2022-08-23T19:32:34.465Z,15.60
2022-08-23T19:37:27.135Z,12.50
2022-08-23T19:42:21.525Z,11.73
2022-08-23T19:47:19.751Z,9.73
2022-08-23T19:52:13.193Z,10.20
2022-08-23T19:57:08.358Z,8.80
2022-08-23T20:02:01.595Z,13.00
2022-08-23T20:06:55.708Z,9.00
2022-08-23T20:11:48.231Z,17.53
2022-08-23T20:16:42.035Z,9.93
2022-08-23T20:21:34.865Z,11.83
2022-08-23T20:26:29.936Z,8.67
2022-08-23T20:31:23.815Z,10.10
2022-08-23T20:36:16.503Z,8.10
2022-08-23T20:41:09.369Z,10.83
2022-08-23T20:46:07.358Z,7.57
2022-08-23T20:51:01.208Z,8.40
2022-08-23T20:55:53.978Z,7.90
2022-08-23T21:00:46.575Z,8.10
2022-08-23T21:05:40.522Z,6.73
2022-08-23T21:10:34.284Z,6.53
2022-08-23T21:15:26.815Z,8.70
2022-08-23T21:20:19.962Z,6.40
2022-08-23T21:25:13.847Z,7.37
2022-08-23T21:30:06.805Z,8.50
2022-08-23T21:34:59.640Z,5.80
2022-08-23T21:39:52.598Z,10.63
2022-08-23T21:44:46.753Z,6.70
2022-08-23T21:49:39.528Z,5.50
2022-08-23T21:54:32.058Z,7.03
2022-08-23T21:59:24.659Z,6.50
2022-08-23T22:04:18.762Z,4.93
2022-08-23T22:09:13.535Z,7.07
2022-08-23T22:14:06.068Z,6.47
2022-08-23T22:18:58.573Z,6.93
2022-08-23T22:23:52.710Z,7.03
2022-08-23T22:28:45.260Z,9.53
2022-08-23T22:33:37.778Z,6.50
2022-08-23T22:38:30.565Z,6.80
2022-08-23T22:43:24.433Z,5.93
2022-08-23T22:48:17.130Z,5.83
2022-08-23T22:53:09.732Z,9.43
2022-08-23T22:58:02.755Z,6.23
2022-08-23T23:02:56.949Z,6.87
2022-08-23T23:08:07.124Z,6.33
2022-08-23T23:12:59.636Z,8.37
2022-08-23T23:17:52.167Z,11.33
2022-08-23T23:22:46.080Z,10.20
2022-08-23T23:27:38.604Z,6.70
2022-08-23T23:32:31.095Z,6.93
2022-08-23T23:37:23.628Z,6.30
2022-08-23T23:42:17.521Z,5.87
2022-08-23T23:47:10.040Z,6.27
2022-08-23T23:52:03.230Z,10.00
2022-08-23T23:56:55.774Z,9.97
